sensor_id;sensor_type;location;lat;lon;timestamp;P1;durP1;ratioP1;P2;durP2;ratioP2
69183;SDS011;56291;53.960;27.550;2023-07-31T10:37:36;4.32;;;2.30;;
69183;SDS011;56291;53.960;27.550;2023-07-31T10:51:26;2.92;;;2.15;;
69183;SDS011;56291;53.960;27.550;2023-07-31T13:21:04;8.30;;;2.70;;
69183;SDS011;56291;53.960;27.550;2023-07-31T13:24:03;8.35;;;3.28;;
69183;SDS011;56291;53.960;27.550;2023-07-31T16:00:57;7.80;;;3.80;;
69183;SDS011;56291;53.960;27.550;2023-07-31T16:03:24;9.60;;;4.18;;
69183;SDS011;56291;53.960;27.550;2023-07-31T16:05:50;5.40;;;3.80;;
69183;SDS011;56291;53.960;27.550;2023-07-31T16:08:16;7.38;;;4.00;;
69183;SDS011;56291;53.960;27.550;2023-07-31T16:10:42;10.43;;;3.83;;
69183;SDS011;56291;53.960;27.550;2023-07-31T16:13:09;6.28;;;3.58;;
69183;SDS011;56291;53.960;27.550;2023-07-31T16:15:35;5.18;;;3.33;;
69183;SDS011;56291;53.960;27.550;2023-07-31T16:18:01;7.32;;;3.92;;
69183;SDS011;56291;53.960;27.550;2023-07-31T16:20:27;6.50;;;3.53;;
69183;SDS011;56291;53.960;27.550;2023-07-31T16:22:54;7.22;;;3.63;;
69183;SDS011;56291;53.960;27.550;2023-07-31T16:25:21;7.13;;;3.85;;
69183;SDS011;56291;53.960;27.550;2023-07-31T16:27:47;8.80;;;3.53;;
69183;SDS011;56291;53.960;27.550;2023-07-31T16:30:13;5.07;;;3.03;;
69183;SDS011;56291;53.960;27.550;2023-07-31T16:32:39;5.78;;;3.47;;
69183;SDS011;56291;53.960;27.550;2023-07-31T16:35:06;7.05;;;3.50;;
69183;SDS011;56291;53.960;27.550;2023-07-31T16:37:32;10.55;;;3.53;;
69183;SDS011;56291;53.960;27.550;2023-07-31T16:39:59;7.68;;;3.03;;
69183;SDS011;56291;53.960;27.550;2023-07-31T16:42:25;6.05;;;3.20;;
69183;SDS011;56291;53.960;27.550;2023-07-31T16:44:52;5.60;;;3.10;;
69183;SDS011;56291;53.960;27.550;2023-07-31T16:47:18;5.13;;;2.97;;
69183;SDS011;56291;53.960;27.550;2023-07-31T16:49:44;6.65;;;3.30;;
69183;SDS011;56291;53.960;27.550;2023-07-31T16:52:11;6.28;;;3.35;;
69183;SDS011;56291;53.960;27.550;2023-07-31T16:54:37;6.32;;;3.50;;
69183;SDS011;56291;53.960;27.550;2023-07-31T16:57:03;5.28;;;3.40;;
69183;SDS011;56291;53.960;27.550;2023-07-31T16:59:30;4.45;;;3.30;;
69183;SDS011;56291;53.960;27.550;2023-07-31T17:01:56;6.75;;;3.28;;
69183;SDS011;56291;53.960;27.550;2023-07-31T17:04:23;8.18;;;3.00;;
69183;SDS011;56291;53.960;27.550;2023-07-31T17:06:49;6.20;;;3.42;;
69183;SDS011;56291;53.960;27.550;2023-07-31T17:09:15;7.15;;;3.38;;
69183;SDS011;56291;53.960;27.550;2023-07-31T17:11:42;4.75;;;3.17;;
69183;SDS011;56291;53.960;27.550;2023-07-31T17:14:08;5.78;;;3.55;;
69183;SDS011;56291;53.960;27.550;2023-07-31T17:16:34;5.25;;;3.25;;
69183;SDS011;56291;53.960;27.550;2023-07-31T17:19:01;6.85;;;3.60;;
69183;SDS011;56291;53.960;27.550;2023-07-31T17:21:27;6.28;;;3.40;;
69183;SDS011;56291;53.960;27.550;2023-07-31T17:23:54;7.40;;;3.50;;
69183;SDS011;56291;53.960;27.550;2023-07-31T17:26:21;5.95;;;3.60;;
69183;SDS011;56291;53.960;27.550;2023-07-31T17:28:48;6.97;;;3.65;;
69183;SDS011;56291;53.960;27.550;2023-07-31T17:31:15;7.22;;;3.28;;
69183;SDS011;56291;53.960;27.550;2023-07-31T17:33:41;8.32;;;3.83;;
69183;SDS011;56291;53.960;27.550;2023-07-31T17:36:07;10.40;;;3.90;;
69183;SDS011;56291;53.960;27.550;2023-07-31T17:38:34;9.10;;;3.88;;
69183;SDS011;56291;53.960;27.550;2023-07-31T17:41:00;11.60;;;4.13;;
69183;SDS011;56291;53.960;27.550;2023-07-31T17:43:26;7.10;;;4.10;;
69183;SDS011;56291;53.960;27.550;2023-07-31T17:45:52;6.82;;;3.97;;
69183;SDS011;56291;53.960;27.550;2023-07-31T17:48:19;6.25;;;3.42;;
69183;SDS011;56291;53.960;27.550;2023-07-31T17:50:52;8.15;;;3.80;;
69183;SDS011;56291;53.960;27.550;2023-07-31T17:53:21;8.77;;;4.32;;
69183;SDS011;56291;53.960;27.550;2023-07-31T17:55:47;6.57;;;4.10;;
69183;SDS011;56291;53.960;27.550;2023-07-31T17:58:14;7.10;;;3.80;;
69183;SDS011;56291;53.960;27.550;2023-07-31T18:00:40;7.00;;;3.63;;
69183;SDS011;56291;53.960;27.550;2023-07-31T18:03:08;7.57;;;4.07;;
69183;SDS011;56291;53.960;27.550;2023-07-31T18:05:36;6.15;;;3.70;;
69183;SDS011;56291;53.960;27.550;2023-07-31T18:08:03;7.68;;;4.15;;
69183;SDS011;56291;53.960;27.550;2023-07-31T18:10:29;8.60;;;4.10;;
69183;SDS011;56291;53.960;27.550;2023-07-31T18:12:56;7.00;;;3.80;;
69183;SDS011;56291;53.960;27.550;2023-07-31T18:15:22;8.00;;;3.95;;
69183;SDS011;56291;53.960;27.550;2023-07-31T18:17:50;7.85;;;4.13;;
69183;SDS011;56291;53.960;27.550;2023-07-31T18:20:16;6.93;;;3.90;;
69183;SDS011;56291;53.960;27.550;2023-07-31T18:22:44;7.47;;;3.97;;
69183;SDS011;56291;53.960;27.550;2023-07-31T18:25:10;5.40;;;3.83;;
69183;SDS011;56291;53.960;27.550;2023-07-31T18:27:38;10.57;;;3.60;;
69183;SDS011;56291;53.960;27.550;2023-07-31T18:30:05;8.48;;;3.83;;
69183;SDS011;56291;53.960;27.550;2023-07-31T18:32:32;7.72;;;3.92;;
69183;SDS011;56291;53.960;27.550;2023-07-31T18:34:59;7.55;;;3.55;;
69183;SDS011;56291;53.960;27.550;2023-07-31T18:37:25;8.55;;;3.95;;
69183;SDS011;56291;53.960;27.550;2023-07-31T18:39:51;5.90;;;3.88;;
69183;SDS011;56291;53.960;27.550;2023-07-31T18:42:17;8.23;;;3.90;;
69183;SDS011;56291;53.960;27.550;2023-07-31T18:44:44;7.13;;;3.97;;
69183;SDS011;56291;53.960;27.550;2023-07-31T18:47:10;5.72;;;4.10;;
69183;SDS011;56291;53.960;27.550;2023-07-31T18:49:36;5.55;;;3.75;;
69183;SDS011;56291;53.960;27.550;2023-07-31T18:52:03;5.68;;;3.70;;
69183;SDS011;56291;53.960;27.550;2023-07-31T18:54:29;6.65;;;4.03;;
69183;SDS011;56291;53.960;27.550;2023-07-31T18:56:55;8.23;;;3.58;;
69183;SDS011;56291;53.960;27.550;2023-07-31T18:59:23;8.13;;;3.65;;
69183;SDS011;56291;53.960;27.550;2023-07-31T19:01:49;5.70;;;3.65;;
69183;SDS011;56291;53.960;27.550;2023-07-31T19:04:16;5.22;;;3.50;;
69183;SDS011;56291;53.960;27.550;2023-07-31T19:06:42;10.07;;;3.60;;
69183;SDS011;56291;53.960;27.550;2023-07-31T19:09:10;6.57;;;3.75;;
69183;SDS011;56291;53.960;27.550;2023-07-31T19:11:37;6.15;;;3.40;;
69183;SDS011;56291;53.960;27.550;2023-07-31T19:14:07;7.45;;;3.50;;
69183;SDS011;56291;53.960;27.550;2023-07-31T19:16:34;5.20;;;3.38;;
69183;SDS011;56291;53.960;27.550;2023-07-31T19:19:00;6.40;;;3.30;;
69183;SDS011;56291;53.960;27.550;2023-07-31T19:21:26;6.97;;;3.55;;
69183;SDS011;56291;53.960;27.550;2023-07-31T19:23:53;4.78;;;3.22;;
69183;SDS011;56291;53.960;27.550;2023-07-31T19:26:19;4.65;;;3.33;;
69183;SDS011;56291;53.960;27.550;2023-07-31T19:28:46;6.45;;;3.53;;
69183;SDS011;56291;53.960;27.550;2023-07-31T19:31:12;6.13;;;3.63;;
69183;SDS011;56291;53.960;27.550;2023-07-31T19:33:39;5.78;;;3.83;;
69183;SDS011;56291;53.960;27.550;2023-07-31T19:36:05;4.32;;;3.65;;
69183;SDS011;56291;53.960;27.550;2023-07-31T19:38:32;6.35;;;3.70;;
69183;SDS011;56291;53.960;27.550;2023-07-31T19:40:59;3.65;;;3.20;;
69183;SDS011;56291;53.960;27.550;2023-07-31T19:43:25;4.78;;;3.40;;
69183;SDS011;56291;53.960;27.550;2023-07-31T19:45:52;4.18;;;3.03;;
69183;SDS011;56291;53.960;27.550;2023-07-31T19:48:18;7.28;;;4.07;;
69183;SDS011;56291;53.960;27.550;2023-07-31T19:50:46;5.20;;;3.55;;
69183;SDS011;56291;53.960;27.550;2023-07-31T19:53:13;6.10;;;3.60;;
69183;SDS011;56291;53.960;27.550;2023-07-31T19:55:39;6.40;;;3.45;;
69183;SDS011;56291;53.960;27.550;2023-07-31T19:58:05;6.60;;;3.47;;
69183;SDS011;56291;53.960;27.550;2023-07-31T20:00:31;8.45;;;4.00;;
69183;SDS011;56291;53.960;27.550;2023-07-31T20:02:58;5.07;;;3.80;;
69183;SDS011;56291;53.960;27.550;2023-07-31T20:05:24;4.85;;;3.65;;
69183;SDS011;56291;53.960;27.550;2023-07-31T20:07:50;5.65;;;3.95;;
69183;SDS011;56291;53.960;27.550;2023-07-31T20:10:17;8.05;;;4.13;;
69183;SDS011;56291;53.960;27.550;2023-07-31T20:12:43;5.35;;;3.72;;
69183;SDS011;56291;53.960;27.550;2023-07-31T20:15:17;6.15;;;3.63;;
69183;SDS011;56291;53.960;27.550;2023-07-31T20:17:45;5.45;;;3.70;;
69183;SDS011;56291;53.960;27.550;2023-07-31T20:20:12;5.78;;;3.60;;
69183;SDS011;56291;53.960;27.550;2023-07-31T20:22:38;6.57;;;4.03;;
69183;SDS011;56291;53.960;27.550;2023-07-31T20:25:05;6.72;;;3.90;;
69183;SDS011;56291;53.960;27.550;2023-07-31T20:27:31;6.78;;;4.05;;
69183;SDS011;56291;53.960;27.550;2023-07-31T20:29:58;7.30;;;3.75;;
69183;SDS011;56291;53.960;27.550;2023-07-31T20:32:24;9.57;;;3.90;;
69183;SDS011;56291;53.960;27.550;2023-07-31T20:34:50;6.50;;;4.15;;
69183;SDS011;56291;53.960;27.550;2023-07-31T20:37:17;5.63;;;4.00;;
69183;SDS011;56291;53.960;27.550;2023-07-31T20:39:43;5.85;;;3.90;;
69183;SDS011;56291;53.960;27.550;2023-07-31T20:42:09;6.25;;;3.75;;
69183;SDS011;56291;53.960;27.550;2023-07-31T20:44:39;6.18;;;4.07;;
69183;SDS011;56291;53.960;27.550;2023-07-31T20:47:05;8.73;;;4.10;;
69183;SDS011;56291;53.960;27.550;2023-07-31T20:49:31;5.07;;;3.80;;
69183;SDS011;56291;53.960;27.550;2023-07-31T20:51:58;8.43;;;4.00;;
69183;SDS011;56291;53.960;27.550;2023-07-31T20:54:24;6.80;;;3.85;;
69183;SDS011;56291;53.960;27.550;2023-07-31T20:56:50;6.45;;;3.85;;
69183;SDS011;56291;53.960;27.550;2023-07-31T20:59:22;5.80;;;3.47;;
69183;SDS011;56291;53.960;27.550;2023-07-31T21:01:48;6.22;;;4.07;;
69183;SDS011;56291;53.960;27.550;2023-07-31T21:04:15;6.65;;;3.95;;
